sensor_id;sensor_type;location;lat;lon;timestamp;P1;durP1;ratioP1;P2;durP2;ratioP2
14554;SDS011;7364;50.870;4.722;2023-05-17T00:00:18;7.10;;;2.83;;
14554;SDS011;7364;50.870;4.722;2023-05-17T00:02:45;10.67;;;3.00;;
14554;SDS011;7364;50.870;4.722;2023-05-17T00:05:12;13.23;;;3.13;;
14554;SDS011;7364;50.870;4.722;2023-05-17T00:07:39;7.23;;;2.93;;
14554;SDS011;7364;50.870;4.722;2023-05-17T00:10:09;7.10;;;2.87;;
14554;SDS011;7364;50.870;4.722;2023-05-17T00:12:40;6.30;;;3.20;;
14554;SDS011;7364;50.870;4.722;2023-05-17T00:15:09;10.60;;;3.43;;
14554;SDS011;7364;50.870;4.722;2023-05-17T00:17:36;10.97;;;3.77;;
14554;SDS011;7364;50.870;4.722;2023-05-17T00:20:04;9.00;;;4.20;;
14554;SDS011;7364;50.870;4.722;2023-05-17T00:22:32;9.80;;;3.70;;
14554;SDS011;7364;50.870;4.722;2023-05-17T00:24:59;12.20;;;2.90;;
14554;SDS011;7364;50.870;4.722;2023-05-17T00:27:28;8.03;;;2.83;;
14554;SDS011;7364;50.870;4.722;2023-05-17T00:29:55;8.90;;;4.07;;
14554;SDS011;7364;50.870;4.722;2023-05-17T00:32:24;7.80;;;3.17;;
14554;SDS011;7364;50.870;4.722;2023-05-17T00:34:51;7.93;;;3.67;;
14554;SDS011;7364;50.870;4.722;2023-05-17T00:37:20;7.27;;;3.10;;
14554;SDS011;7364;50.870;4.722;2023-05-17T00:39:47;6.80;;;3.23;;
14554;SDS011;7364;50.870;4.722;2023-05-17T00:42:15;13.63;;;4.40;;
14554;SDS011;7364;50.870;4.722;2023-05-17T00:44:42;8.80;;;3.90;;
14554;SDS011;7364;50.870;4.722;2023-05-17T00:47:09;10.70;;;4.07;;
14554;SDS011;7364;50.870;4.722;2023-05-17T00:49:38;7.77;;;3.27;;
14554;SDS011;7364;50.870;4.722;2023-05-17T00:52:05;7.20;;;3.33;;
14554;SDS011;7364;50.870;4.722;2023-05-17T00:54:32;7.50;;;3.70;;
14554;SDS011;7364;50.870;4.722;2023-05-17T00:57:00;11.43;;;4.00;;
14554;SDS011;7364;50.870;4.722;2023-05-17T00:59:29;16.40;;;3.80;;
14554;SDS011;7364;50.870;4.722;2023-05-17T01:01:56;10.93;;;4.40;;
14554;SDS011;7364;50.870;4.722;2023-05-17T01:04:24;15.67;;;4.40;;
14554;SDS011;7364;50.870;4.722;2023-05-17T01:06:53;10.67;;;4.53;;
14554;SDS011;7364;50.870;4.722;2023-05-17T01:09:20;9.73;;;4.23;;
14554;SDS011;7364;50.870;4.722;2023-05-17T01:11:51;9.47;;;3.83;;
14554;SDS011;7364;50.870;4.722;2023-05-17T01:14:34;10.70;;;4.10;;
14554;SDS011;7364;50.870;4.722;2023-05-17T01:17:11;10.67;;;5.20;;
14554;SDS011;7364;50.870;4.722;2023-05-17T01:19:48;7.67;;;4.23;;
14554;SDS011;7364;50.870;4.722;2023-05-17T01:22:26;9.17;;;5.10;;
14554;SDS011;7364;50.870;4.722;2023-05-17T01:25:00;14.50;;;4.67;;
14554;SDS011;7364;50.870;4.722;2023-05-17T01:27:38;9.60;;;5.10;;
14554;SDS011;7364;50.870;4.722;2023-05-17T01:30:08;9.00;;;4.70;;
14554;SDS011;7364;50.870;4.722;2023-05-17T01:32:39;10.60;;;4.63;;
14554;SDS011;7364;50.870;4.722;2023-05-17T01:35:08;10.30;;;4.50;;
14554;SDS011;7364;50.870;4.722;2023-05-17T01:37:37;10.13;;;5.40;;
14554;SDS011;7364;50.870;4.722;2023-05-17T01:40:04;12.50;;;5.53;;
14554;SDS011;7364;50.870;4.722;2023-05-17T01:42:35;10.70;;;5.77;;
14554;SDS011;7364;50.870;4.722;2023-05-17T01:45:11;11.40;;;5.77;;
14554;SDS011;7364;50.870;4.722;2023-05-17T01:47:47;11.20;;;6.17;;
14554;SDS011;7364;50.870;4.722;2023-05-17T01:50:33;8.63;;;5.43;;
14554;SDS011;7364;50.870;4.722;2023-05-17T01:53:04;7.77;;;5.53;;
14554;SDS011;7364;50.870;4.722;2023-05-17T01:55:38;10.13;;;5.40;;
14554;SDS011;7364;50.870;4.722;2023-05-17T01:58:10;10.63;;;5.63;;
14554;SDS011;7364;50.870;4.722;2023-05-17T02:00:38;12.83;;;5.53;;
14554;SDS011;7364;50.870;4.722;2023-05-17T02:03:11;9.77;;;5.47;;
14554;SDS011;7364;50.870;4.722;2023-05-17T02:05:38;12.60;;;6.00;;
14554;SDS011;7364;50.870;4.722;2023-05-17T02:08:06;11.47;;;5.10;;
14554;SDS011;7364;50.870;4.722;2023-05-17T02:10:33;9.80;;;6.00;;
14554;SDS011;7364;50.870;4.722;2023-05-17T02:13:01;14.53;;;6.03;;
14554;SDS011;7364;50.870;4.722;2023-05-17T02:15:29;13.47;;;5.90;;
14554;SDS011;7364;50.870;4.722;2023-05-17T02:17:57;13.90;;;6.30;;
14554;SDS011;7364;50.870;4.722;2023-05-17T02:20:24;10.80;;;6.63;;
14554;SDS011;7364;50.870;4.722;2023-05-17T02:22:51;8.33;;;6.07;;
14554;SDS011;7364;50.870;4.722;2023-05-17T02:25:19;10.80;;;5.93;;
14554;SDS011;7364;50.870;4.722;2023-05-17T02:27:46;10.47;;;5.63;;
14554;SDS011;7364;50.870;4.722;2023-05-17T02:30:13;7.50;;;5.33;;
14554;SDS011;7364;50.870;4.722;2023-05-17T02:32:42;13.27;;;5.73;;
14554;SDS011;7364;50.870;4.722;2023-05-17T02:35:10;17.03;;;6.63;;
14554;SDS011;7364;50.870;4.722;2023-05-17T02:37:37;12.47;;;6.27;;
14554;SDS011;7364;50.870;4.722;2023-05-17T02:40:05;16.10;;;6.40;;
14554;SDS011;7364;50.870;4.722;2023-05-17T02:42:34;18.97;;;6.40;;
14554;SDS011;7364;50.870;4.722;2023-05-17T02:45:02;15.77;;;6.57;;
14554;SDS011;7364;50.870;4.722;2023-05-17T02:47:30;11.20;;;6.40;;
14554;SDS011;7364;50.870;4.722;2023-05-17T02:49:58;9.87;;;6.17;;
14554;SDS011;7364;50.870;4.722;2023-05-17T02:52:26;17.90;;;6.37;;
14554;SDS011;7364;50.870;4.722;2023-05-17T02:54:53;11.70;;;6.47;;
14554;SDS011;7364;50.870;4.722;2023-05-17T02:57:20;9.20;;;5.57;;
14554;SDS011;7364;50.870;4.722;2023-05-17T02:59:47;13.53;;;5.77;;
14554;SDS011;7364;50.870;4.722;2023-05-17T03:02:15;9.67;;;4.90;;
14554;SDS011;7364;50.870;4.722;2023-05-17T03:04:42;10.53;;;5.27;;
14554;SDS011;7364;50.870;4.722;2023-05-17T03:07:11;6.70;;;4.33;;
14554;SDS011;7364;50.870;4.722;2023-05-17T03:09:38;9.73;;;4.63;;
14554;SDS011;7364;50.870;4.722;2023-05-17T03:12:06;10.60;;;5.30;;
14554;SDS011;7364;50.870;4.722;2023-05-17T03:14:36;7.70;;;5.13;;
14554;SDS011;7364;50.870;4.722;2023-05-17T03:17:03;11.77;;;5.63;;
14554;SDS011;7364;50.870;4.722;2023-05-17T03:19:30;9.80;;;5.43;;
14554;SDS011;7364;50.870;4.722;2023-05-17T03:21:57;14.53;;;5.70;;
14554;SDS011;7364;50.870;4.722;2023-05-17T03:24:26;7.23;;;5.53;;
14554;SDS011;7364;50.870;4.722;2023-05-17T03:26:53;9.77;;;5.83;;
14554;SDS011;7364;50.870;4.722;2023-05-17T03:29:20;9.23;;;5.83;;
14554;SDS011;7364;50.870;4.722;2023-05-17T03:31:47;10.80;;;6.00;;
14554;SDS011;7364;50.870;4.722;2023-05-17T03:34:15;10.00;;;5.27;;
14554;SDS011;7364;50.870;4.722;2023-05-17T03:36:42;8.43;;;5.80;;
14554;SDS011;7364;50.870;4.722;2023-05-17T03:39:10;12.30;;;5.87;;
14554;SDS011;7364;50.870;4.722;2023-05-17T03:41:38;15.23;;;6.27;;
14554;SDS011;7364;50.870;4.722;2023-05-17T03:44:06;12.47;;;5.37;;
14554;SDS011;7364;50.870;4.722;2023-05-17T03:46:33;11.07;;;5.03;;
14554;SDS011;7364;50.870;4.722;2023-05-17T03:49:00;7.13;;;4.90;;
14554;SDS011;7364;50.870;4.722;2023-05-17T03:51:28;8.50;;;5.43;;
14554;SDS011;7364;50.870;4.722;2023-05-17T03:53:59;14.00;;;5.27;;
14554;SDS011;7364;50.870;4.722;2023-05-17T03:56:26;11.17;;;5.30;;
14554;SDS011;7364;50.870;4.722;2023-05-17T03:58:55;10.67;;;4.97;;
14554;SDS011;7364;50.870;4.722;2023-05-17T04:01:22;8.73;;;5.33;;
14554;SDS011;7364;50.870;4.722;2023-05-17T04:03:49;9.80;;;5.90;;
14554;SDS011;7364;50.870;4.722;2023-05-17T04:06:17;10.07;;;6.60;;
14554;SDS011;7364;50.870;4.722;2023-05-17T04:08:44;9.13;;;6.23;;
14554;SDS011;7364;50.870;4.722;2023-05-17T04:11:11;8.83;;;6.20;;
14554;SDS011;7364;50.870;4.722;2023-05-17T04:13:38;11.10;;;6.07;;
14554;SDS011;7364;50.870;4.722;2023-05-17T04:16:09;14.20;;;6.63;;
14554;SDS011;7364;50.870;4.722;2023-05-17T04:18:37;11.90;;;6.60;;
14554;SDS011;7364;50.870;4.722;2023-05-17T04:21:04;11.67;;;6.27;;
14554;SDS011;7364;50.870;4.722;2023-05-17T04:23:32;8.87;;;6.43;;
14554;SDS011;7364;50.870;4.722;2023-05-17T04:25:59;12.17;;;6.77;;
14554;SDS011;7364;50.870;4.722;2023-05-17T04:28:27;11.07;;;6.83;;
14554;SDS011;7364;50.870;4.722;2023-05-17T04:30:55;10.47;;;6.77;;
14554;SDS011;7364;50.870;4.722;2023-05-17T04:33:24;11.30;;;6.23;;
14554;SDS011;7364;50.870;4.722;2023-05-17T04:35:53;9.70;;;6.00;;
14554;SDS011;7364;50.870;4.722;2023-05-17T04:38:20;14.67;;;6.30;;
14554;SDS011;7364;50.870;4.722;2023-05-17T04:40:48;7.80;;;6.67;;
14554;SDS011;7364;50.870;4.722;2023-05-17T04:43:16;9.67;;;6.53;;
14554;SDS011;7364;50.870;4.722;2023-05-17T04:45:43;9.67;;;6.77;;
14554;SDS011;7364;50.870;4.722;2023-05-17T04:48:10;10.10;;;5.83;;
14554;SDS011;7364;50.870;4.722;2023-05-17T04:50:39;9.83;;;6.30;;
14554;SDS011;7364;50.870;4.722;2023-05-17T04:53:06;9.77;;;6.40;;
14554;SDS011;7364;50.870;4.722;2023-05-17T04:55:37;9.33;;;7.20;;
14554;SDS011;7364;50.870;4.722;2023-05-17T04:58:04;13.37;;;6.73;;
14554;SDS011;7364;50.870;4.722;2023-05-17T05:00:31;9.57;;;7.20;;
14554;SDS011;7364;50.870;4.722;2023-05-17T05:02:59;15.10;;;7.53;;
14554;SDS011;7364;50.870;4.722;2023-05-17T05:05:26;12.90;;;7.40;;
14554;SDS011;7364;50.870;4.722;2023-05-17T05:07:54;11.03;;;7.20;;
14554;SDS011;7364;50.870;4.722;2023-05-17T05:10:22;9.40;;;6.57;;
14554;SDS011;7364;50.870;4.722;2023-05-17T05:12:49;13.90;;;7.63;;
14554;SDS011;7364;50.870;4.722;2023-05-17T05:15:16;11.07;;;6.93;;
14554;SDS011;7364;50.870;4.722;2023-05-17T05:17:43;12.77;;;6.60;;
14554;SDS011;7364;50.870;4.722;2023-05-17T05:20:11;10.03;;;7.50;;
14554;SDS011;7364;50.870;4.722;2023-05-17T05:22:38;9.37;;;6.83;;
14554;SDS011;7364;50.870;4.722;2023-05-17T05:25:08;8.53;;;7.47;;
14554;SDS011;7364;50.870;4.722;2023-05-17T05:27:35;11.17;;;6.80;;
14554;SDS011;7364;50.870;4.722;2023-05-17T05:30:03;11.53;;;8.00;;
14554;SDS011;7364;50.870;4.722;2023-05-17T05:32:31;8.97;;;7.03;;
14554;SDS011;7364;50.870;4.722;2023-05-17T05:34:58;15.90;;;8.00;;
14554;SDS011;7364;50.870;4.722;2023-05-17T05:37:25;15.07;;;8.87;;
14554;SDS011;7364;50.870;4.722;2023-05-17T05:39:53;16.27;;;8.43;;
14554;SDS011;7364;50.870;4.722;2023-05-17T05:42:22;14.63;;;8.23;;
14554;SDS011;7364;50.870;4.722;2023-05-17T05:44:49;10.90;;;8.27;;
14554;SDS011;7364;50.870;4.722;2023-05-17T05:47:16;16.07;;;8.10;;
14554;SDS011;7364;50.870;4.722;2023-05-17T05:49:43;11.03;;;8.43;;
14554;SDS011;7364;50.870;4.722;2023-05-17T05:52:10;12.03;;;7.90;;
14554;SDS011;7364;50.870;4.722;2023-05-17T05:54:38;13.40;;;8.40;;
14554;SDS011;7364;50.870;4.722;2023-05-17T05:57:05;19.48;;;12.85;;
14554;SDS011;7364;50.870;4.722;2023-05-17T05:59:33;15.03;;;10.43;;
14554;SDS011;7364;50.870;4.722;2023-05-17T06:02:01;15.77;;;10.10;;
14554;SDS011;7364;50.870;4.722;2023-05-17T06:04:28;13.63;;;8.37;;
14554;SDS011;7364;50.870;4.722;2023-05-17T06:06:55;19.83;;;9.63;;
14554;SDS011;7364;50.870;4.722;2023-05-17T06:09:23;11.73;;;9.27;;
14554;SDS011;7364;50.870;4.722;2023-05-17T06:11:51;13.90;;;9.23;;
14554;SDS011;7364;50.870;4.722;2023-05-17T06:14:19;12.07;;;9.30;;
14554;SDS011;7364;50.870;4.722;2023-05-17T06:16:47;19.57;;;9.10;;
14554;SDS011;7364;50.870;4.722;2023-05-17T06:19:15;12.83;;;8.60;;
14554;SDS011;7364;50.870;4.722;2023-05-17T06:21:42;14.70;;;8.87;;
14554;SDS011;7364;50.870;4.722;2023-05-17T06:24:12;12.63;;;8.37;;
14554;SDS011;7364;50.870;4.722;2023-05-17T06:26:39;14.23;;;9.33;;
14554;SDS011;7364;50.870;4.722;2023-05-17T06:29:08;15.67;;;8.73;;
14554;SDS011;7364;50.870;4.722;2023-05-17T06:31:35;23.90;;;8.53;;
14554;SDS011;7364;50.870;4.722;2023-05-17T06:34:03;11.63;;;7.90;;
14554;SDS011;7364;50.870;4.722;2023-05-17T06:36:31;14.73;;;8.33;;
14554;SDS011;7364;50.870;4.722;2023-05-17T06:38:58;13.40;;;8.53;;
14554;SDS011;7364;50.870;4.722;2023-05-17T06:41:25;16.17;;;8.50;;
14554;SDS011;7364;50.870;4.722;2023-05-17T06:43:52;20.50;;;7.87;;
14554;SDS011;7364;50.870;4.722;2023-05-17T06:46:19;10.60;;;6.40;;
14554;SDS011;7364;50.870;4.722;2023-05-17T06:48:47;17.90;;;8.10;;
14554;SDS011;7364;50.870;4.722;2023-05-17T06:51:15;14.27;;;6.93;;
14554;SDS011;7364;50.870;4.722;2023-05-17T06:53:42;14.03;;;6.97;;
14554;SDS011;7364;50.870;4.722;2023-05-17T06:56:10;13.50;;;7.67;;
14554;SDS011;7364;50.870;4.722;2023-05-17T06:58:37;11.53;;;7.47;;
14554;SDS011;7364;50.870;4.722;2023-05-17T07:01:04;16.83;;;7.40;;
14554;SDS011;7364;50.870;4.722;2023-05-17T07:03:32;11.37;;;7.27;;
14554;SDS011;7364;50.870;4.722;2023-05-17T07:05:59;17.90;;;7.60;;
14554;SDS011;7364;50.870;4.722;2023-05-17T07:08:28;12.97;;;7.67;;
14554;SDS011;7364;50.870;4.722;2023-05-17T07:10:56;13.57;;;8.57;;
14554;SDS011;7364;50.870;4.722;2023-05-17T07:13:23;20.63;;;11.00;;
14554;SDS011;7364;50.870;4.722;2023-05-17T07:15:50;17.67;;;11.50;;
14554;SDS011;7364;50.870;4.722;2023-05-17T07:18:18;16.07;;;11.57;;
14554;SDS011;7364;50.870;4.722;2023-05-17T07:20:45;13.53;;;8.10;;
14554;SDS011;7364;50.870;4.722;2023-05-17T07:23:12;12.03;;;7.73;;
14554;SDS011;7364;50.870;4.722;2023-05-17T07:25:41;12.63;;;6.97;;
14554;SDS011;7364;50.870;4.722;2023-05-17T07:28:09;13.23;;;7.67;;
14554;SDS011;7364;50.870;4.722;2023-05-17T07:30:36;16.13;;;8.07;;
14554;SDS011;7364;50.870;4.722;2023-05-17T07:33:04;15.60;;;7.20;;
14554;SDS011;7364;50.870;4.722;2023-05-17T07:35:31;15.73;;;6.93;;
14554;SDS011;7364;50.870;4.722;2023-05-17T07:37:58;9.67;;;6.53;;
14554;SDS011;7364;50.870;4.722;2023-05-17T07:40:25;11.63;;;5.87;;
14554;SDS011;7364;50.870;4.722;2023-05-17T07:42:54;10.80;;;5.43;;
14554;SDS011;7364;50.870;4.722;2023-05-17T07:45:21;11.60;;;5.70;;
14554;SDS011;7364;50.870;4.722;2023-05-17T07:47:49;11.33;;;6.17;;
14554;SDS011;7364;50.870;4.722;2023-05-17T07:50:16;10.73;;;5.73;;
14554;SDS011;7364;50.870;4.722;2023-05-17T07:52:43;11.90;;;5.27;;
14554;SDS011;7364;50.870;4.722;2023-05-17T07:55:10;9.80;;;4.93;;
14554;SDS011;7364;50.870;4.722;2023-05-17T07:57:38;13.77;;;5.30;;
14554;SDS011;7364;50.870;4.722;2023-05-17T08:00:07;8.13;;;3.67;;
14554;SDS011;7364;50.870;4.722;2023-05-17T08:02:36;9.80;;;4.53;;
14554;SDS011;7364;50.870;4.722;2023-05-17T08:05:04;9.73;;;3.50;;
14554;SDS011;7364;50.870;4.722;2023-05-17T08:07:32;11.73;;;4.20;;
14554;SDS011;7364;50.870;4.722;2023-05-17T08:10:00;10.23;;;4.20;;
14554;SDS011;7364;50.870;4.722;2023-05-17T08:12:27;9.87;;;4.37;;
14554;SDS011;7364;50.870;4.722;2023-05-17T08:14:54;9.67;;;3.67;;
14554;SDS011;7364;50.870;4.722;2023-05-17T08:17:23;14.53;;;4.07;;
14554;SDS011;7364;50.870;4.722;2023-05-17T08:19:50;7.77;;;3.40;;
14554;SDS011;7364;50.870;4.722;2023-05-17T08:22:17;8.33;;;3.40;;
14554;SDS011;7364;50.870;4.722;2023-05-17T08:24:48;5.73;;;3.10;;
14554;SDS011;7364;50.870;4.722;2023-05-17T08:27:15;10.07;;;3.50;;
14554;SDS011;7364;50.870;4.722;2023-05-17T08:29:42;8.57;;;3.70;;
14554;SDS011;7364;50.870;4.722;2023-05-17T08:32:10;8.70;;;3.80;;
14554;SDS011;7364;50.870;4.722;2023-05-17T08:34:38;6.60;;;3.30;;
14554;SDS011;7364;50.870;4.722;2023-05-17T08:37:06;7.87;;;3.97;;
14554;SDS011;7364;50.870;4.722;2023-05-17T08:39:34;4.70;;;3.17;;
14554;SDS011;7364;50.870;4.722;2023-05-17T08:42:01;7.10;;;3.10;;
14554;SDS011;7364;50.870;4.722;2023-05-17T08:44:32;7.23;;;3.50;;
14554;SDS011;7364;50.870;4.722;2023-05-17T08:47:03;10.77;;;3.60;;
14554;SDS011;7364;50.870;4.722;2023-05-17T08:49:31;4.53;;;3.40;;
14554;SDS011;7364;50.870;4.722;2023-05-17T08:52:03;9.30;;;4.07;;
14554;SDS011;7364;50.870;4.722;2023-05-17T08:54:34;10.20;;;4.00;;
14554;SDS011;7364;50.870;4.722;2023-05-17T08:57:02;10.57;;;3.90;;
14554;SDS011;7364;50.870;4.722;2023-05-17T08:59:31;7.07;;;3.63;;
14554;SDS011;7364;50.870;4.722;2023-05-17T09:01:59;8.63;;;4.23;;
14554;SDS011;7364;50.870;4.722;2023-05-17T09:04:27;10.87;;;4.43;;
14554;SDS011;7364;50.870;4.722;2023-05-17T09:06:55;8.40;;;4.17;;
14554;SDS011;7364;50.870;4.722;2023-05-17T09:09:24;8.27;;;3.93;;
14554;SDS011;7364;50.870;4.722;2023-05-17T09:11:52;10.70;;;4.50;;
14554;SDS011;7364;50.870;4.722;2023-05-17T09:14:19;9.63;;;4.03;;
14554;SDS011;7364;50.870;4.722;2023-05-17T09:16:46;9.80;;;3.37;;
14554;SDS011;7364;50.870;4.722;2023-05-17T09:19:21;5.33;;;3.53;;
14554;SDS011;7364;50.870;4.722;2023-05-17T09:21:48;10.43;;;4.13;;
14554;SDS011;7364;50.870;4.722;2023-05-17T09:24:17;6.30;;;3.20;;
14554;SDS011;7364;50.870;4.722;2023-05-17T09:26:55;8.10;;;3.13;;
14554;SDS011;7364;50.870;4.722;2023-05-17T09:29:29;14.50;;;4.00;;
14554;SDS011;7364;50.870;4.722;2023-05-17T09:31:57;13.27;;;3.37;;
14554;SDS011;7364;50.870;4.722;2023-05-17T09:34:38;5.97;;;3.10;;
14554;SDS011;7364;50.870;4.722;2023-05-17T09:37:11;5.77;;;3.20;;
14554;SDS011;7364;50.870;4.722;2023-05-17T09:39:39;7.20;;;3.20;;
14554;SDS011;7364;50.870;4.722;2023-05-17T09:42:08;7.63;;;3.40;;
14554;SDS011;7364;50.870;4.722;2023-05-17T09:44:45;39.03;;;8.80;;
14554;SDS011;7364;50.870;4.722;2023-05-17T09:47:20;13.87;;;4.50;;
14554;SDS011;7364;50.870;4.722;2023-05-17T09:49:48;17.43;;;5.70;;
14554;SDS011;7364;50.870;4.722;2023-05-17T09:52:16;36.00;;;10.03;;
14554;SDS011;7364;50.870;4.722;2023-05-17T09:54:50;12.23;;;3.93;;
14554;SDS011;7364;50.870;4.722;2023-05-17T09:57:20;9.17;;;3.63;;
14554;SDS011;7364;50.870;4.722;2023-05-17T09:59:47;5.00;;;3.00;;
14554;SDS011;7364;50.870;4.722;2023-05-17T10:02:19;6.87;;;3.20;;
14554;SDS011;7364;50.870;4.722;2023-05-17T10:04:48;7.47;;;2.50;;
14554;SDS011;7364;50.870;4.722;2023-05-17T10:07:19;10.73;;;3.13;;
14554;SDS011;7364;50.870;4.722;2023-05-17T10:09:47;6.10;;;3.20;;
14554;SDS011;7364;50.870;4.722;2023-05-17T10:12:15;7.90;;;3.47;;
14554;SDS011;7364;50.870;4.722;2023-05-17T10:14:46;5.37;;;2.70;;
14554;SDS011;7364;50.870;4.722;2023-05-17T10:17:13;6.00;;;3.20;;
14554;SDS011;7364;50.870;4.722;2023-05-17T10:19:42;5.63;;;2.97;;
14554;SDS011;7364;50.870;4.722;2023-05-17T10:22:09;7.30;;;2.73;;
14554;SDS011;7364;50.870;4.722;2023-05-17T10:24:38;8.37;;;3.20;;
14554;SDS011;7364;50.870;4.722;2023-05-17T10:27:06;7.17;;;2.30;;
14554;SDS011;7364;50.870;4.722;2023-05-17T10:29:35;8.20;;;3.00;;
14554;SDS011;7364;50.870;4.722;2023-05-17T10:32:06;6.10;;;3.10;;
14554;SDS011;7364;50.870;4.722;2023-05-17T10:34:35;8.07;;;2.80;;
14554;SDS011;7364;50.870;4.722;2023-05-17T10:37:03;8.87;;;3.20;;
14554;SDS011;7364;50.870;4.722;2023-05-17T10:39:32;7.80;;;3.60;;
14554;SDS011;7364;50.870;4.722;2023-05-17T10:42:04;12.23;;;3.40;;
14554;SDS011;7364;50.870;4.722;2023-05-17T10:44:33;6.10;;;3.20;;
14554;SDS011;7364;50.870;4.722;2023-05-17T10:47:02;6.40;;;2.97;;
14554;SDS011;7364;50.870;4.722;2023-05-17T10:49:33;8.23;;;3.03;;
14554;SDS011;7364;50.870;4.722;2023-05-17T10:52:10;5.23;;;2.90;;
14554;SDS011;7364;50.870;4.722;2023-05-17T10:54:39;4.97;;;3.07;;
14554;SDS011;7364;50.870;4.722;2023-05-17T10:57:08;5.93;;;3.30;;
14554;SDS011;7364;50.870;4.722;2023-05-17T10:59:58;6.53;;;3.13;;
14554;SDS011;7364;50.870;4.722;2023-05-17T11:02:33;7.67;;;2.80;;
14554;SDS011;7364;50.870;4.722;2023-05-17T11:05:22;6.17;;;2.33;;
14554;SDS011;7364;50.870;4.722;2023-05-17T11:07:57;5.90;;;2.80;;
14554;SDS011;7364;50.870;4.722;2023-05-17T11:10:38;6.87;;;2.47;;
14554;SDS011;7364;50.870;4.722;2023-05-17T11:13:25;6.23;;;3.00;;
14554;SDS011;7364;50.870;4.722;2023-05-17T11:16:01;10.70;;;3.67;;
14554;SDS011;7364;50.870;4.722;2023-05-17T11:18:44;7.70;;;2.40;;
14554;SDS011;7364;50.870;4.722;2023-05-17T11:21:13;6.13;;;2.93;;
14554;SDS011;7364;50.870;4.722;2023-05-17T11:23:41;8.40;;;3.63;;
14554;SDS011;7364;50.870;4.722;2023-05-17T11:26:16;6.87;;;3.57;;
14554;SDS011;7364;50.870;4.722;2023-05-17T11:28:55;9.50;;;3.40;;
14554;SDS011;7364;50.870;4.722;2023-05-17T11:31:28;6.77;;;3.57;;
14554;SDS011;7364;50.870;4.722;2023-05-17T11:33:57;9.73;;;3.10;;
14554;SDS011;7364;50.870;4.722;2023-05-17T11:36:26;8.03;;;3.17;;
14554;SDS011;7364;50.870;4.722;2023-05-17T11:39:08;4.33;;;2.80;;
14554;SDS011;7364;50.870;4.722;2023-05-17T11:41:37;6.50;;;3.00;;
14554;SDS011;7364;50.870;4.722;2023-05-17T11:44:06;8.33;;;3.73;;
14554;SDS011;7364;50.870;4.722;2023-05-17T11:46:34;4.93;;;2.77;;
14554;SDS011;7364;50.870;4.722;2023-05-17T11:49:05;8.37;;;3.30;;
14554;SDS011;7364;50.870;4.722;2023-05-17T11:51:40;4.77;;;3.07;;
14554;SDS011;7364;50.870;4.722;2023-05-17T11:54:12;8.70;;;2.93;;
14554;SDS011;7364;50.870;4.722;2023-05-17T11:56:42;10.03;;;3.80;;
14554;SDS011;7364;50.870;4.722;2023-05-17T11:59:14;8.53;;;3.30;;
14554;SDS011;7364;50.870;4.722;2023-05-17T12:01:47;5.43;;;2.80;;
14554;SDS011;7364;50.870;4.722;2023-05-17T12:04:27;8.27;;;2.70;;
14554;SDS011;7364;50.870;4.722;2023-05-17T12:07:03;5.73;;;2.73;;
14554;SDS011;7364;50.870;4.722;2023-05-17T12:09:35;4.67;;;2.77;;
14554;SDS011;7364;50.870;4.722;2023-05-17T12:12:06;5.30;;;2.47;;
14554;SDS011;7364;50.870;4.722;2023-05-17T12:14:38;7.90;;;3.50;;
14554;SDS011;7364;50.870;4.722;2023-05-17T12:17:15;5.50;;;2.53;;
14554;SDS011;7364;50.870;4.722;2023-05-17T12:19:53;6.77;;;3.00;;
14554;SDS011;7364;50.870;4.722;2023-05-17T12:22:23;7.53;;;2.77;;
14554;SDS011;7364;50.870;4.722;2023-05-17T12:24:50;6.17;;;2.43;;
14554;SDS011;7364;50.870;4.722;2023-05-17T12:27:24;7.33;;;2.77;;
14554;SDS011;7364;50.870;4.722;2023-05-17T12:29:51;4.90;;;2.23;;
14554;SDS011;7364;50.870;4.722;2023-05-17T12:32:19;4.07;;;2.03;;
14554;SDS011;7364;50.870;4.722;2023-05-17T12:34:46;5.93;;;2.00;;
14554;SDS011;7364;50.870;4.722;2023-05-17T12:37:14;5.87;;;2.43;;
14554;SDS011;7364;50.870;4.722;2023-05-17T12:39:43;5.17;;;2.73;;
14554;SDS011;7364;50.870;4.722;2023-05-17T12:42:10;6.73;;;2.97;;
14554;SDS011;7364;50.870;4.722;2023-05-17T12:44:38;3.93;;;2.20;;
14554;SDS011;7364;50.870;4.722;2023-05-17T12:47:05;9.13;;;3.00;;
14554;SDS011;7364;50.870;4.722;2023-05-17T12:49:37;4.73;;;2.50;;
14554;SDS011;7364;50.870;4.722;2023-05-17T12:52:05;4.73;;;2.50;;
14554;SDS011;7364;50.870;4.722;2023-05-17T12:54:33;5.20;;;2.37;;
14554;SDS011;7364;50.870;4.722;2023-05-17T12:57:09;5.10;;;2.00;;
14554;SDS011;7364;50.870;4.722;2023-05-17T12:59:46;5.20;;;2.07;;
14554;SDS011;7364;50.870;4.722;2023-05-17T13:02:14;4.93;;;2.03;;
14554;SDS011;7364;50.870;4.722;2023-05-17T13:04:42;5.20;;;2.57;;
14554;SDS011;7364;50.870;4.722;2023-05-17T13:07:10;3.93;;;2.53;;
14554;SDS011;7364;50.870;4.722;2023-05-17T13:09:44;4.87;;;2.60;;
14554;SDS011;7364;50.870;4.722;2023-05-17T13:12:17;4.60;;;2.60;;
14554;SDS011;7364;50.870;4.722;2023-05-17T13:14:45;4.90;;;2.50;;
14554;SDS011;7364;50.870;4.722;2023-05-17T13:17:16;4.83;;;2.43;;
14554;SDS011;7364;50.870;4.722;2023-05-17T13:19:45;5.57;;;2.60;;
14554;SDS011;7364;50.870;4.722;2023-05-17T13:22:12;9.03;;;3.03;;
14554;SDS011;7364;50.870;4.722;2023-05-17T13:24:40;6.30;;;2.63;;
14554;SDS011;7364;50.870;4.722;2023-05-17T13:27:09;5.60;;;2.67;;
14554;SDS011;7364;50.870;4.722;2023-05-17T13:29:39;7.07;;;2.73;;
14554;SDS011;7364;50.870;4.722;2023-05-17T13:32:09;6.53;;;2.70;;
14554;SDS011;7364;50.870;4.722;2023-05-17T13:34:38;4.70;;;2.37;;
14554;SDS011;7364;50.870;4.722;2023-05-17T13:37:06;5.73;;;2.70;;
14554;SDS011;7364;50.870;4.722;2023-05-17T13:39:34;6.43;;;2.70;;
14554;SDS011;7364;50.870;4.722;2023-05-17T13:42:02;6.17;;;3.00;;
14554;SDS011;7364;50.870;4.722;2023-05-17T13:44:39;6.53;;;2.87;;
14554;SDS011;7364;50.870;4.722;2023-05-17T13:47:06;6.33;;;3.13;;
14554;SDS011;7364;50.870;4.722;2023-05-17T13:49:35;6.55;;;3.45;;
14554;SDS011;7364;50.870;4.722;2023-05-17T13:52:02;6.57;;;2.88;;
14554;SDS011;7364;50.870;4.722;2023-05-17T13:54:32;5.30;;;2.50;;
14554;SDS011;7364;50.870;4.722;2023-05-17T13:57:00;5.55;;;2.78;;
14554;SDS011;7364;50.870;4.722;2023-05-17T13:59:27;5.78;;;2.53;;
14554;SDS011;7364;50.870;4.722;2023-05-17T14:01:55;6.47;;;2.67;;
14554;SDS011;7364;50.870;4.722;2023-05-17T14:04:23;7.78;;;2.90;;
14554;SDS011;7364;50.870;4.722;2023-05-17T14:06:51;7.32;;;2.80;;
14554;SDS011;7364;50.870;4.722;2023-05-17T14:09:18;4.78;;;2.30;;
14554;SDS011;7364;50.870;4.722;2023-05-17T14:11:45;3.90;;;2.20;;
14554;SDS011;7364;50.870;4.722;2023-05-17T14:14:12;7.43;;;2.67;;
14554;SDS011;7364;50.870;4.722;2023-05-17T14:16:40;7.28;;;2.83;;
14554;SDS011;7364;50.870;4.722;2023-05-17T14:19:08;7.87;;;2.60;;
14554;SDS011;7364;50.870;4.722;2023-05-17T14:21:36;4.77;;;2.60;;
14554;SDS011;7364;50.870;4.722;2023-05-17T14:24:03;6.13;;;2.75;;
14554;SDS011;7364;50.870;4.722;2023-05-17T14:26:31;8.23;;;2.90;;
14554;SDS011;7364;50.870;4.722;2023-05-17T14:28:58;4.65;;;1.98;;
14554;SDS011;7364;50.870;4.722;2023-05-17T14:31:34;5.00;;;2.65;;
14554;SDS011;7364;50.870;4.722;2023-05-17T14:34:01;4.88;;;2.50;;
14554;SDS011;7364;50.870;4.722;2023-05-17T14:36:30;7.40;;;2.67;;
14554;SDS011;7364;50.870;4.722;2023-05-17T14:38:59;3.80;;;2.30;;
14554;SDS011;7364;50.870;4.722;2023-05-17T14:41:27;4.13;;;2.35;;
14554;SDS011;7364;50.870;4.722;2023-05-17T14:43:55;6.47;;;2.60;;
14554;SDS011;7364;50.870;4.722;2023-05-17T14:46:22;6.97;;;2.70;;
14554;SDS011;7364;50.870;4.722;2023-05-17T14:48:49;3.50;;;2.33;;
14554;SDS011;7364;50.870;4.722;2023-05-17T14:51:17;8.05;;;3.25;;
14554;SDS011;7364;50.870;4.722;2023-05-17T14:53:46;6.40;;;2.63;;
14554;SDS011;7364;50.870;4.722;2023-05-17T14:56:13;6.05;;;2.67;;
14554;SDS011;7364;50.870;4.722;2023-05-17T14:58:40;4.88;;;2.70;;
14554;SDS011;7364;50.870;4.722;2023-05-17T15:01:08;7.43;;;2.90;;
14554;SDS011;7364;50.870;4.722;2023-05-17T15:03:35;4.28;;;2.67;;
14554;SDS011;7364;50.870;4.722;2023-05-17T15:06:02;7.13;;;3.05;;